Valley Springs, Arkansas
Current Conditions -  °F | °C
As of 7:53 PM on Friday 28 Nov 2014 (Local Time) from KHRO Reporting Station
Clear Clear  
Wind Chill: 51°   Ceiling: Unl
Heat Index: 51°   Visibility: 10mi
Dew Point: 38°   Wind: 10mph
Humidity: 61%   Direction: 180°S
Pressure: 29.94"   Gusts: 20mph
Location:  36.16°N, 92.99°W
Report Text: KHRO 290153Z AUTO 18009G17KT 10SM CLR 11/03 A2994 RMK AO2 SLP141 T01060033
Loading
Personal Weather Stations






























Interactive Weather Map New forecast layout! Learn more

10-Day Weather Forecast

Advertisements
Track Severe Weather on mobile